Noma, FL (32452)

1:54 AM CDT on July 29, 2016 (GMT -0500)
APRSWXNET | | Change Station

Elev 150 ft 30.93 °N, 85.68 °W | Updated 40 minutes ago

Clear
Clear
76 °F
Feels Like 75 °F
N
0
Wind Variable Wind from South
Gusts 0.0 mph

Today
High -- | Low -- °F
--% Chance of Precip.
Yesterday
High -- | Low -- °F
Precip. -- in
Pressure 29.92 in
Visibility 10.0 miles
Clouds Clear
Heat Index 75 °F
Dew Point 76 °F
Humidity 100%
Rainfall in
Snow Depth Not available.
5:58 AM 7:39 PM
Waning Crescent, 24% visible
METAR K1J0 290358Z AUTO 00000KT 10SM CLR 26/24 A3005 RMK AO2 SLP132 T02610239
Pressure 29.92 in
Visibility 10.0 miles
Clouds Clear
Heat Index 75 °F
Dew Point 76 °F
Humidity 100%
Rainfall in
Snow Depth Not available.
5:58 AM 7:39 PM
Waning Crescent, 24% visible
METAR K1J0 290358Z AUTO 00000KT 10SM CLR 26/24 A3005 RMK AO2 SLP132 T02610239

10-Day Weather Forecast

Almanac

Astronomy

Jul. 29, 2016 Rise Set
Actual Time
Civil Twilight
Nautical Twilight
Astronomical Twilight
Moon
Length of Visible Light
Length of Day
Tomorrow will be .
, % of the Moon is Illuminated

Today's Extremes

State Highs State Lows

Community

WunderPhotos

Upload Photos

1,928,299 photos uploaded!

WunderBlog® & News

Nearby

Air Quality

  Air Quality AQ Index Pollutant
Not available.

Snow Depth

Station Depth Elevation

Earthquake Activity

City Distance Mag. Time & Date
Minimum magnitude displayed is 2.5.

Coastal Water Temperatures

Place Temperature

Stations

Nearby Weather Stations

Station Location Temp. Windchill Dew Point Humidity Wind Precip. Elev Updated Type
                   

Watches & Warnings

There are currently no watches in effect.